Palo Verde, California
Current Conditions -  °F | °C
As of 12:52 PM on Friday 24 Oct 2014 (Local Time) from KBLH Reporting Station
Clear Clear  
Wind Chill: 91°   Ceiling: Unl
Heat Index: 91°   Visibility: 10mi
Dew Point: 46°   Wind: 5mph
Humidity: 21%   Direction: NA
Pressure: 29.96"   Gusts: NA
Location:  33.43°N, 114.73°W
Report Text: KBLH 241952Z AUTO VRB04KT 10SM CLR 33/08 A2996 RMK AO2 SLP139 T03280078
Loading
Personal Weather Stations






























Interactive Weather Map
Tropical Storm Tracking
New forecast layout! Learn more

10-Day Weather Forecast

Advertisements
Track Severe Weather on mobile